LEBZ/BJZ METAR and TAF weather

Enter ICAO airport designator
Station Type Date Time Source
LEBZ METAR 2021/05/13 19:00 UTC NOAA

LEBZ 131900Z 29015KT 260V320 9999 FEW030 SCT045 19/13 Q1017


Station Type Date Time Source
LEBZ Decoded METAR 2021/05/13 19:00 UTC NOAA

Badajoz / Talavera La Real, Spain (LEBZ) 38-53N 006-49W 192M
May 13, 2021 - 03:00 PM EDT / 2021.05.13 1900 UTC
Wind: from the WNW (290 degrees) at 17 MPH (15 KT) (direction variable):0
Visibility: greater than 7 mile(s):0
Sky conditions: partly cloudy
Temperature: 66 F (19 C)
Dew Point: 55 F (13 C)
Relative Humidity: 68%
Pressure (altimeter): 30.03 in. Hg (1017 hPa)
ob: LEBZ 131900Z 29015KT 260V320 9999 FEW030 SCT045 19/13 Q1017
cycle: 19

Station Type Date Time Source
LEBZ TAF 2021/05/14 03:30 UTC NOAA

TAF LEBZ 140200Z 1403/1503 29006KT CAVOK TX27/1415Z TN09/1405Z PROB30
TEMPO 1403/1409 3000 BR

Example: see airport list